Wednesday, June 20, 2018, 7:43 AM GMT
Back to Local

CXHF, High Falls , Que.

Location: , , Canada Lat: 45.833
Local Time: 7:43 AM GMT ( 7:43 GMT) Lon: -75.65
Time Zone: GMT Elev: 623 ft

Show me the last for .
Show Coded

Time T Td Feel RH Dir Speed Gust Alt SLP Vis Weather Sky Remarks
2018-06-20 06:00 51 51 - 98 - - - - - 0 None
2018-06-20 05:00 52 51 - 97 - - - - - 0 None
2018-06-20 03:00 55 52 - 88 - - - - - 0 None
2018-06-20 02:00 58 52 - 80 - - - - - 0 None
2018-06-20 01:00 62 51 - 66 - - - - - 0 None
2018-06-20 00:00 67 51 - 56 - - - - - 0 None
2018-06-19 23:00 70 47 - 44 - - - - - 0 None
2018-06-19 21:00 72 48 76 42 - - - - - 0 None
2018-06-19 20:00 71 45 75 40 - - - - - 0 None
2018-06-19 19:00 69 46 - 43 - - - - - 0 None
2018-06-19 18:00 67 45 - 45 - - - - - 0 None
2018-06-19 17:00 65 48 - 52 - - - - - 0 None
2018-06-19 16:00 63 48 - 58 - - - - - 0 None
2018-06-19 15:00 61 47 - 59 - - - - - 0 None
2018-06-19 14:00 59 46 - 61 - - - - - 0 None
2018-06-19 13:00 57 45 - 64 - - - - - 0 None
2018-06-19 12:00 56 44 - 64 - - - - - 0 None
2018-06-19 11:00 56 49 - 76 - - - - - 0 None
2018-06-19 10:00 55 48 - 78 - - - - - 0 None
2018-06-19 09:00 55 48 - 77 - - - - - 0 None
2018-06-19 08:00 55 48 - 76 - - - - - 0 None

Support USWX by starting your Amazon purchase here.